createdAt,value
2023-05-23T00:01:09.107Z,94.10
2023-05-23T00:03:37.769Z,93.80
2023-05-23T00:06:06.732Z,93.80
2023-05-23T00:08:34.058Z,93.90
2023-05-23T00:11:01.440Z,94.10
2023-05-23T00:13:28.732Z,94.20
2023-05-23T00:15:56.514Z,94.40
2023-05-23T00:18:24.977Z,94.40
2023-05-23T00:20:52.513Z,94.50
2023-05-23T00:23:21.031Z,94.80
2023-05-23T00:25:53.562Z,94.70
2023-05-23T00:28:21.327Z,94.90
2023-05-23T00:30:49.394Z,95.00
2023-05-23T00:33:17.991Z,95.10
2023-05-23T00:35:45.603Z,95.20
2023-05-23T00:38:14.451Z,95.30
2023-05-23T00:40:41.799Z,95.30
2023-05-23T00:43:10.046Z,95.40
2023-05-23T00:45:37.496Z,95.50
2023-05-23T00:48:06.362Z,95.70
2023-05-23T00:50:34.228Z,95.70
2023-05-23T00:53:01.932Z,95.70
2023-05-23T00:55:30.300Z,95.60
2023-05-23T00:57:57.976Z,95.50
2023-05-23T01:00:26.255Z,95.50
2023-05-23T01:02:54.029Z,95.60
2023-05-23T01:05:25.054Z,95.60
2023-05-23T01:07:52.957Z,95.60
2023-05-23T01:10:24.997Z,95.80
2023-05-23T01:13:17.278Z,96.10
2023-05-23T01:16:06.383Z,96.30
2023-05-23T01:18:46.571Z,96.30
2023-05-23T01:21:18.136Z,96.40
2023-05-23T01:24:13.376Z,96.40
2023-05-23T01:27:02.669Z,96.60
2023-05-23T01:29:36.672Z,96.30
2023-05-23T01:32:07.970Z,96.10
2023-05-23T01:34:38.457Z,96.00
2023-05-23T01:37:10.952Z,96.10
2023-05-23T01:39:39.343Z,96.40
2023-05-23T01:42:09.855Z,96.60
2023-05-23T01:44:38.681Z,96.70
2023-05-23T01:47:08.511Z,96.80
2023-05-23T01:49:38.032Z,96.80
2023-05-23T01:52:06.308Z,96.90
2023-05-23T01:54:35.413Z,97.00
2023-05-23T01:57:04.173Z,97.30
2023-05-23T01:59:33.050Z,97.30
2023-05-23T02:02:01.246Z,97.20
2023-05-23T02:04:28.857Z,97.30
2023-05-23T02:06:56.229Z,97.40
2023-05-23T02:09:23.747Z,97.50
2023-05-23T02:11:51.217Z,97.60
2023-05-23T02:14:19.716Z,97.60
2023-05-23T02:16:47.146Z,97.40
2023-05-23T02:19:15.279Z,97.30
2023-05-23T02:21:42.660Z,97.00
2023-05-23T02:24:09.993Z,96.80
2023-05-23T02:26:37.685Z,96.70
2023-05-23T02:29:05.017Z,96.90
2023-05-23T02:31:32.792Z,97.30
2023-05-23T02:34:00.189Z,97.60
2023-05-23T02:36:28.446Z,97.80
2023-05-23T02:38:56.938Z,98.00
2023-05-23T02:41:25.006Z,98.10
2023-05-23T02:43:52.466Z,98.30
2023-05-23T02:46:19.920Z,98.40
2023-05-23T02:48:48.690Z,98.50
2023-05-23T02:51:16.298Z,98.80
2023-05-23T02:53:44.168Z,99.00
2023-05-23T02:56:13.396Z,99.10
2023-05-23T02:58:40.835Z,99.20
2023-05-23T03:01:12.090Z,99.20
2023-05-23T03:03:40.299Z,99.20
2023-05-23T03:06:10.613Z,99.30
2023-05-23T03:08:38.076Z,99.30
2023-05-23T03:11:05.554Z,99.20
2023-05-23T03:13:32.888Z,99.30
2023-05-23T03:16:00.370Z,99.30
2023-05-23T03:18:28.136Z,99.30
2023-05-23T03:20:56.379Z,99.20
2023-05-23T03:23:24.664Z,99.20
2023-05-23T03:25:52.033Z,99.20
2023-05-23T03:28:19.381Z,99.10
2023-05-23T03:30:46.841Z,99.00
2023-05-23T03:33:14.258Z,98.90
2023-05-23T03:35:42.348Z,98.60
2023-05-23T03:38:09.908Z,98.70
2023-05-23T03:40:37.589Z,98.60
2023-05-23T03:43:06.696Z,98.70
2023-05-23T03:45:36.835Z,98.80
2023-05-23T03:48:11.243Z,98.70
2023-05-23T03:50:38.757Z,98.70
2023-05-23T03:53:07.405Z,98.70
2023-05-23T03:55:36.130Z,98.60
2023-05-23T03:58:03.619Z,98.40
2023-05-23T04:00:31.240Z,98.30
2023-05-23T04:03:00.462Z,98.20
2023-05-23T04:05:27.864Z,98.10
2023-05-23T04:07:55.412Z,98.00
2023-05-23T04:10:23.441Z,97.90
2023-05-23T04:12:51.658Z,97.60
2023-05-23T04:15:21.498Z,97.60
2023-05-23T04:17:56.373Z,97.60
2023-05-23T04:20:24.998Z,97.40
2023-05-23T04:22:52.793Z,97.30
2023-05-23T04:25:20.707Z,97.00
2023-05-23T04:28:00.244Z,96.80
2023-05-23T04:30:30.552Z,96.60
2023-05-23T04:33:00.153Z,96.30
2023-05-23T04:35:29.543Z,96.00
2023-05-23T04:37:56.976Z,95.70
2023-05-23T04:40:26.586Z,95.30
2023-05-23T04:43:14.554Z,94.90
2023-05-23T04:45:55.148Z,94.30
2023-05-23T04:48:29.376Z,93.50
2023-05-23T04:50:57.459Z,93.30
2023-05-23T04:53:24.974Z,92.60
2023-05-23T04:55:52.704Z,92.00
2023-05-23T04:58:20.341Z,91.60
2023-05-23T05:00:48.080Z,91.10
2023-05-23T05:03:17.962Z,90.90
2023-05-23T05:05:46.660Z,90.60
2023-05-23T05:08:15.748Z,90.50
2023-05-23T05:10:43.880Z,90.60
2023-05-23T05:13:12.314Z,90.70
2023-05-23T05:15:45.181Z,90.50
2023-05-23T05:18:13.924Z,90.20
2023-05-23T05:20:42.313Z,89.50
2023-05-23T05:23:10.098Z,89.30
2023-05-23T05:25:38.388Z,89.60
2023-05-23T05:28:06.250Z,88.40
2023-05-23T05:30:39.007Z,87.50
2023-05-23T05:33:07.825Z,86.80
2023-05-23T05:35:38.358Z,85.90
2023-05-23T05:38:08.233Z,84.70
2023-05-23T05:40:35.809Z,83.60
2023-05-23T05:43:03.423Z,83.00
2023-05-23T05:45:31.125Z,82.60
2023-05-23T05:47:59.510Z,82.00
2023-05-23T05:50:27.689Z,80.70
2023-05-23T05:52:55.458Z,79.80
2023-05-23T05:55:23.604Z,79.70
2023-05-23T05:57:54.378Z,79.70
2023-05-23T06:00:22.591Z,79.60
2023-05-23T06:02:59.412Z,78.90
2023-05-23T06:05:37.567Z,78.70
2023-05-23T06:08:05.020Z,79.00
2023-05-23T06:10:32.893Z,79.20
2023-05-23T06:13:00.507Z,79.40
2023-05-23T06:15:28.205Z,79.90
2023-05-23T06:17:55.648Z,80.10
2023-05-23T06:20:24.708Z,80.40
2023-05-23T06:22:53.627Z,80.00
2023-05-23T06:25:21.208Z,79.30
2023-05-23T06:27:48.729Z,78.80
2023-05-23T06:30:16.499Z,78.70
2023-05-23T06:32:46.038Z,78.40
2023-05-23T06:35:13.933Z,78.30
2023-05-23T06:37:45.745Z,77.50
2023-05-23T06:40:16.161Z,77.00
2023-05-23T06:42:43.746Z,77.10
2023-05-23T06:45:20.130Z,76.90
2023-05-23T06:47:48.360Z,76.70
2023-05-23T06:50:20.082Z,76.90
2023-05-23T06:52:49.921Z,76.00
2023-05-23T06:55:19.593Z,75.70
2023-05-23T06:57:52.049Z,75.30
2023-05-23T07:00:21.603Z,75.50
2023-05-23T07:03:17.962Z,75.80
2023-05-23T07:05:47.475Z,75.50
2023-05-23T07:08:16.706Z,75.80
2023-05-23T07:10:55.622Z,75.30
2023-05-23T07:13:33.046Z,75.70
2023-05-23T07:16:00.924Z,75.80
2023-05-23T07:18:28.340Z,75.50
2023-05-23T07:20:57.818Z,75.30
2023-05-23T07:23:25.945Z,75.00
2023-05-23T07:26:01.880Z,75.00
2023-05-23T07:28:40.252Z,74.70
2023-05-23T07:31:09.547Z,75.30
2023-05-23T07:33:38.466Z,75.00
2023-05-23T07:36:08.327Z,74.10
2023-05-23T07:38:35.970Z,73.70
2023-05-23T07:41:11.623Z,73.70
2023-05-23T07:43:41.192Z,73.10
2023-05-23T07:46:09.236Z,73.20
2023-05-23T07:48:38.151Z,72.90
2023-05-23T07:51:06.060Z,72.70
2023-05-23T07:53:35.313Z,72.60
2023-05-23T07:56:04.285Z,72.90
2023-05-23T07:58:37.212Z,72.70
2023-05-23T08:01:05.108Z,72.70
2023-05-23T08:03:51.484Z,72.10
2023-05-23T08:06:25.424Z,72.40
2023-05-23T08:08:53.178Z,72.60
2023-05-23T08:11:20.822Z,72.40
2023-05-23T08:13:51.522Z,72.30
2023-05-23T08:16:48.446Z,71.50
2023-05-23T08:19:23.046Z,71.40
2023-05-23T08:21:53.224Z,71.20
2023-05-23T08:24:21.731Z,71.10
2023-05-23T08:26:50.465Z,70.40
2023-05-23T08:29:18.612Z,70.30
2023-05-23T08:31:46.077Z,69.80
2023-05-23T08:34:14.311Z,69.40
2023-05-23T08:36:43.190Z,69.50
2023-05-23T08:39:15.314Z,70.30
2023-05-23T08:41:52.642Z,69.70
2023-05-23T08:44:19.994Z,69.30
2023-05-23T08:46:53.803Z,69.10
2023-05-23T08:49:41.338Z,68.50
2023-05-23T08:52:13.634Z,68.10
2023-05-23T08:54:44.586Z,68.10
2023-05-23T08:57:13.996Z,67.20
2023-05-23T08:59:47.043Z,67.40
2023-05-23T09:02:16.873Z,67.40
2023-05-23T09:04:46.772Z,68.40
2023-05-23T09:07:19.751Z,68.80
2023-05-23T09:09:51.061Z,68.20
2023-05-23T09:12:18.570Z,67.80
2023-05-23T09:14:48.374Z,68.10
2023-05-23T09:17:19.711Z,67.40
2023-05-23T09:19:48.554Z,66.40
2023-05-23T09:22:28.738Z,65.80
2023-05-23T09:25:02.048Z,65.30
2023-05-23T09:27:31.150Z,65.40
2023-05-23T09:30:05.488Z,65.00
2023-05-23T09:32:32.918Z,64.80
2023-05-23T09:35:05.789Z,64.60
2023-05-23T09:37:39.203Z,64.20
2023-05-23T09:40:11.667Z,63.40
2023-05-23T09:42:44.180Z,63.20
2023-05-23T09:45:12.873Z,62.60
2023-05-23T09:47:49.046Z,61.60
2023-05-23T09:50:16.501Z,62.20
2023-05-23T09:52:44.117Z,62.60
2023-05-23T09:55:11.910Z,64.30
2023-05-23T09:57:44.215Z,63.10
2023-05-23T10:00:13.618Z,64.20
2023-05-23T10:03:15.059Z,62.30
2023-05-23T10:05:46.615Z,61.40
2023-05-23T10:08:31.253Z,60.00
2023-05-23T10:10:58.577Z,60.60
2023-05-23T10:13:27.380Z,61.60
2023-05-23T10:16:03.123Z,62.10
2023-05-23T10:18:34.903Z,59.70
2023-05-23T10:21:08.648Z,59.10
2023-05-23T10:23:37.697Z,58.40
2023-05-23T10:26:05.471Z,58.60
2023-05-23T10:28:33.126Z,58.70
2023-05-23T10:31:00.871Z,58.60
2023-05-23T10:33:34.378Z,59.00
2023-05-23T10:36:10.120Z,57.00
2023-05-23T10:39:13.282Z,56.60
2023-05-23T10:42:01.122Z,57.30
2023-05-23T10:44:30.821Z,57.20
2023-05-23T10:47:03.928Z,53.60
2023-05-23T10:49:55.046Z,53.90
2023-05-23T10:52:26.466Z,54.00
2023-05-23T10:54:56.250Z,55.20
2023-05-23T10:57:37.569Z,53.30
2023-05-23T11:00:16.351Z,52.90
2023-05-23T11:02:55.612Z,53.50
2023-05-23T11:05:25.109Z,52.30
2023-05-23T11:08:15.270Z,51.50
2023-05-23T11:10:54.113Z,52.00
2023-05-23T11:13:22.568Z,52.00
2023-05-23T11:15:50.760Z,51.50
2023-05-23T11:18:27.353Z,52.60
2023-05-23T11:20:55.745Z,52.90
2023-05-23T11:23:24.269Z,51.90
2023-05-23T11:25:53.824Z,52.40
2023-05-23T11:28:21.383Z,52.70
2023-05-23T11:30:50.025Z,53.10
2023-05-23T11:33:18.622Z,52.50
2023-05-23T11:35:48.192Z,50.90
2023-05-23T11:38:16.827Z,51.30
2023-05-23T11:40:46.436Z,52.70
2023-05-23T11:43:16.729Z,51.90
2023-05-23T11:45:46.792Z,51.80
2023-05-23T11:48:16.634Z,52.10
2023-05-23T11:50:52.498Z,51.80
2023-05-23T11:53:22.155Z,52.00
2023-05-23T11:55:53.092Z,52.30
2023-05-23T11:58:27.987Z,51.80
2023-05-23T12:01:01.273Z,53.90
2023-05-23T12:03:28.932Z,53.60
2023-05-23T12:05:56.551Z,52.30
2023-05-23T12:08:25.289Z,51.70
2023-05-23T12:11:02.935Z,51.80
2023-05-23T12:13:30.876Z,52.20
2023-05-23T12:16:00.728Z,51.10
2023-05-23T12:18:31.992Z,51.70
2023-05-23T12:21:05.725Z,51.30
2023-05-23T12:23:34.896Z,52.30
2023-05-23T12:26:06.992Z,52.30
2023-05-23T12:28:37.191Z,50.50
2023-05-23T12:31:17.465Z,49.70
2023-05-23T12:33:48.032Z,48.20
2023-05-23T12:36:22.839Z,47.90
2023-05-23T12:38:50.252Z,48.60
2023-05-23T12:41:20.006Z,48.80
2023-05-23T12:43:52.668Z,49.10
2023-05-23T12:46:22.010Z,49.60
2023-05-23T12:48:49.460Z,49.70
2023-05-23T12:51:17.289Z,50.00
2023-05-23T12:53:44.983Z,49.70
2023-05-23T12:56:12.381Z,49.20
2023-05-23T12:58:39.871Z,48.30
2023-05-23T13:01:07.554Z,48.30
2023-05-23T13:03:38.109Z,48.30
2023-05-23T13:06:07.090Z,48.40
2023-05-23T13:08:34.501Z,48.90
2023-05-23T13:11:01.898Z,48.30
2023-05-23T13:13:29.854Z,45.60
2023-05-23T13:15:57.503Z,46.20
2023-05-23T13:18:25.566Z,46.60
2023-05-23T13:20:53.113Z,46.20
2023-05-23T13:23:21.195Z,47.30
2023-05-23T13:25:50.532Z,46.90
2023-05-23T13:28:18.738Z,49.00
2023-05-23T13:30:47.280Z,49.50
2023-05-23T13:33:16.349Z,49.50
2023-05-23T13:35:45.595Z,49.80
2023-05-23T13:38:13.001Z,50.20
2023-05-23T13:40:40.869Z,50.70
2023-05-23T13:43:08.637Z,51.50
2023-05-23T13:45:36.413Z,51.20
2023-05-23T13:48:03.903Z,51.90
2023-05-23T13:50:31.528Z,51.90
2023-05-23T13:52:59.168Z,53.10
2023-05-23T13:55:27.599Z,53.90
2023-05-23T13:57:55.004Z,54.50
2023-05-23T14:00:22.853Z,56.40
2023-05-23T14:02:50.667Z,57.70
2023-05-23T14:05:19.561Z,58.20
2023-05-23T14:07:47.455Z,59.10
2023-05-23T14:10:17.279Z,60.20
2023-05-23T14:12:44.691Z,61.30
2023-05-23T14:15:12.510Z,61.80
2023-05-23T14:17:39.935Z,62.10
2023-05-23T14:20:08.676Z,62.70
2023-05-23T14:22:37.145Z,63.20
2023-05-23T14:25:05.336Z,62.70
2023-05-23T14:27:33.757Z,62.60
2023-05-23T14:30:01.362Z,62.90
2023-05-23T14:32:29.062Z,61.70
2023-05-23T14:34:56.602Z,63.00
2023-05-23T14:37:23.937Z,62.30
2023-05-23T14:39:51.417Z,63.90
2023-05-23T14:42:18.729Z,65.80
2023-05-23T14:44:46.419Z,66.90
2023-05-23T14:47:13.835Z,68.30
2023-05-23T14:49:41.558Z,69.10
2023-05-23T14:52:08.900Z,70.10
2023-05-23T14:54:36.271Z,72.00
2023-05-23T14:57:03.748Z,74.10
2023-05-23T14:59:32.105Z,76.70
2023-05-23T15:01:59.600Z,77.90
2023-05-23T15:04:27.339Z,79.70
2023-05-23T15:06:54.806Z,80.70
2023-05-23T15:09:22.757Z,81.80
2023-05-23T15:11:51.117Z,83.20
2023-05-23T15:14:18.555Z,84.70
2023-05-23T15:16:46.573Z,85.80
2023-05-23T15:19:14.073Z,86.70
2023-05-23T15:21:49.916Z,87.50
2023-05-23T15:24:18.885Z,88.80
2023-05-23T15:26:46.512Z,89.80
2023-05-23T15:29:15.420Z,88.90
2023-05-23T15:31:42.924Z,89.30
2023-05-23T15:34:10.649Z,88.90
2023-05-23T15:36:40.937Z,89.60
2023-05-23T15:39:08.519Z,90.10
2023-05-23T15:41:35.868Z,90.30
2023-05-23T15:44:03.344Z,90.30
2023-05-23T15:46:31.109Z,90.70
2023-05-23T15:49:05.021Z,90.60
2023-05-23T15:51:41.122Z,90.80
2023-05-23T15:54:08.562Z,91.10
2023-05-23T15:56:36.472Z,91.20
2023-05-23T15:59:03.925Z,91.60
2023-05-23T16:01:31.616Z,91.90
2023-05-23T16:03:59.099Z,92.10
2023-05-23T16:06:28.360Z,92.40
2023-05-23T16:09:00.507Z,92.50
2023-05-23T16:11:28.257Z,93.00
2023-05-23T16:13:56.086Z,92.80
2023-05-23T16:16:23.501Z,93.50
2023-05-23T16:18:51.121Z,93.40
2023-05-23T16:21:20.662Z,93.20
2023-05-23T16:23:49.679Z,93.50
2023-05-23T16:26:18.668Z,93.90
2023-05-23T16:28:46.452Z,94.00
2023-05-23T16:31:15.659Z,94.20
2023-05-23T16:33:44.008Z,94.40
2023-05-23T16:36:11.481Z,94.70
2023-05-23T16:38:38.862Z,94.90
2023-05-23T16:41:06.323Z,95.00
2023-05-23T16:43:34.662Z,95.10
2023-05-23T16:46:02.599Z,94.90
2023-05-23T16:48:30.042Z,95.40
2023-05-23T16:50:58.061Z,95.50
2023-05-23T16:53:25.473Z,95.50
2023-05-23T16:55:52.823Z,95.50
2023-05-23T16:58:21.273Z,95.80
2023-05-23T17:00:49.210Z,96.00
2023-05-23T17:03:16.723Z,96.20
2023-05-23T17:05:44.308Z,96.20
2023-05-23T17:08:12.133Z,96.40
2023-05-23T17:10:40.205Z,96.70
2023-05-23T17:13:09.164Z,96.90
2023-05-23T17:15:36.883Z,97.10
2023-05-23T17:18:04.492Z,97.50
2023-05-23T17:20:32.461Z,97.60
2023-05-23T17:23:00.276Z,97.80
2023-05-23T17:25:27.614Z,97.90
2023-05-23T17:27:55.803Z,97.90
2023-05-23T17:30:23.237Z,98.20
2023-05-23T17:32:51.054Z,98.40
2023-05-23T17:35:18.802Z,98.40
2023-05-23T17:37:46.701Z,98.20
2023-05-23T17:40:16.151Z,98.30
2023-05-23T17:42:43.971Z,98.10
2023-05-23T17:45:11.879Z,97.90
2023-05-23T17:47:39.666Z,97.80
2023-05-23T17:50:09.083Z,97.60
2023-05-23T17:52:36.541Z,97.70
2023-05-23T17:55:04.429Z,98.00
2023-05-23T17:57:31.997Z,98.20
2023-05-23T17:59:59.749Z,98.30
2023-05-23T18:02:28.138Z,98.40
2023-05-23T18:04:55.914Z,98.50
2023-05-23T18:07:23.372Z,98.30
2023-05-23T18:09:51.024Z,98.20
2023-05-23T18:12:18.952Z,98.50
2023-05-23T18:14:46.435Z,98.50
2023-05-23T18:17:13.802Z,98.70
2023-05-23T18:19:42.130Z,98.90
2023-05-23T18:22:09.646Z,98.90
2023-05-23T18:24:38.496Z,99.10
2023-05-23T18:27:06.145Z,98.90
2023-05-23T18:29:33.681Z,99.40
2023-05-23T18:32:01.698Z,99.40
2023-05-23T18:34:29.509Z,99.10
2023-05-23T18:36:56.909Z,99.50
2023-05-23T18:39:24.517Z,99.90
2023-05-23T18:41:52.384Z,99.90
2023-05-23T18:44:21.131Z,99.90
2023-05-23T18:46:48.818Z,99.90
2023-05-23T18:49:16.336Z,99.90
2023-05-23T18:51:44.035Z,99.90
2023-05-23T18:54:11.382Z,99.90
2023-05-23T18:56:38.836Z,99.90
2023-05-23T18:59:06.170Z,99.90
2023-05-23T19:01:33.752Z,99.90
2023-05-23T19:04:01.707Z,99.90
2023-05-23T19:06:29.273Z,99.90
2023-05-23T19:08:57.134Z,99.90
2023-05-23T19:11:24.737Z,99.90
2023-05-23T19:13:52.240Z,99.90
2023-05-23T19:16:21.265Z,99.90
2023-05-23T19:18:48.715Z,99.90
2023-05-23T19:21:16.513Z,99.90
2023-05-23T19:23:44.042Z,99.90
2023-05-23T19:26:13.661Z,99.90
2023-05-23T19:28:41.363Z,99.90
2023-05-23T19:31:09.497Z,99.90
2023-05-23T19:33:37.055Z,99.90
2023-05-23T19:36:05.715Z,99.90
2023-05-23T19:38:33.077Z,99.90
2023-05-23T19:41:00.582Z,99.90
2023-05-23T19:43:27.860Z,99.90
2023-05-23T19:45:55.607Z,99.90
2023-05-23T19:48:23.128Z,99.90
2023-05-23T19:50:50.513Z,99.90
2023-05-23T19:53:17.961Z,99.90
2023-05-23T19:55:45.994Z,99.90
2023-05-23T19:58:13.370Z,99.90
2023-05-23T20:00:41.475Z,99.90
2023-05-23T20:03:09.676Z,99.90
2023-05-23T20:05:37.135Z,99.90
2023-05-23T20:08:05.023Z,99.90
2023-05-23T20:10:32.467Z,99.90
2023-05-23T20:12:59.975Z,99.90
2023-05-23T20:15:38.619Z,99.90
2023-05-23T20:18:08.272Z,99.90
2023-05-23T20:20:36.237Z,99.90
2023-05-23T20:23:04.387Z,99.90
2023-05-23T20:25:31.900Z,99.90
2023-05-23T20:27:59.618Z,99.90
2023-05-23T20:30:28.074Z,99.90
2023-05-23T20:32:55.662Z,99.90
2023-05-23T20:35:23.711Z,99.90
2023-05-23T20:37:52.022Z,99.90
2023-05-23T20:40:20.497Z,99.90
2023-05-23T20:42:48.092Z,99.90
2023-05-23T20:45:16.118Z,99.90
2023-05-23T20:47:43.815Z,99.90
2023-05-23T20:50:13.065Z,99.90
2023-05-23T20:52:43.014Z,99.90
2023-05-23T20:55:11.010Z,99.90
2023-05-23T20:57:38.538Z,99.90
2023-05-23T21:00:11.604Z,99.90
2023-05-23T21:02:43.269Z,99.90
2023-05-23T21:05:11.957Z,99.90
2023-05-23T21:07:39.650Z,99.90
2023-05-23T21:10:07.678Z,99.90
2023-05-23T21:12:36.008Z,99.90
2023-05-23T21:15:03.744Z,99.90
2023-05-23T21:17:31.378Z,99.90
2023-05-23T21:19:58.730Z,99.90
2023-05-23T21:22:26.260Z,99.90
2023-05-23T21:24:53.761Z,99.90
2023-05-23T21:27:21.628Z,99.90
2023-05-23T21:29:49.334Z,99.90
2023-05-23T21:32:16.889Z,99.90
2023-05-23T21:34:44.334Z,99.90
2023-05-23T21:37:11.802Z,99.90
2023-05-23T21:39:50.527Z,99.90
2023-05-23T21:42:19.728Z,99.90
2023-05-23T21:44:47.168Z,99.90
2023-05-23T21:47:14.514Z,99.90
2023-05-23T21:49:42.145Z,99.90
2023-05-23T21:52:09.467Z,99.90
2023-05-23T21:54:37.143Z,99.90
2023-05-23T21:57:04.962Z,99.90
2023-05-23T21:59:32.578Z,99.90
2023-05-23T22:02:00.379Z,99.90
2023-05-23T22:04:28.120Z,99.90
2023-05-23T22:06:55.842Z,99.90
2023-05-23T22:09:23.274Z,99.90
2023-05-23T22:11:50.853Z,99.90
2023-05-23T22:14:18.680Z,99.90
2023-05-23T22:16:46.355Z,99.90
2023-05-23T22:19:18.127Z,99.90
2023-05-23T22:21:46.024Z,99.90
2023-05-23T22:24:13.556Z,99.90
2023-05-23T22:26:41.522Z,99.90
2023-05-23T22:29:09.078Z,99.90
2023-05-23T22:31:37.049Z,99.90
2023-05-23T22:34:04.564Z,99.90
2023-05-23T22:36:33.633Z,99.90
2023-05-23T22:39:05.761Z,99.90
2023-05-23T22:41:33.451Z,99.90
2023-05-23T22:44:01.227Z,99.90
2023-05-23T22:46:28.923Z,99.90
2023-05-23T22:48:56.661Z,99.90
2023-05-23T22:51:24.831Z,99.90
2023-05-23T22:53:53.038Z,99.90
2023-05-23T22:56:20.793Z,99.90
2023-05-23T22:58:48.282Z,99.90
2023-05-23T23:01:15.870Z,99.90
2023-05-23T23:03:43.690Z,99.90
2023-05-23T23:06:11.220Z,99.90
2023-05-23T23:08:38.844Z,99.90
2023-05-23T23:11:06.336Z,99.90
2023-05-23T23:13:33.798Z,99.90
2023-05-23T23:16:01.294Z,99.90
2023-05-23T23:18:28.846Z,99.90
2023-05-23T23:20:56.306Z,99.90
2023-05-23T23:23:23.853Z,99.90
2023-05-23T23:25:52.702Z,99.90
2023-05-23T23:28:20.989Z,99.90
2023-05-23T23:30:48.386Z,99.90
2023-05-23T23:33:16.161Z,99.90
2023-05-23T23:35:48.688Z,99.90
2023-05-23T23:38:16.722Z,99.90
2023-05-23T23:40:45.881Z,99.90
2023-05-23T23:43:13.994Z,99.90
2023-05-23T23:45:41.766Z,99.90
2023-05-23T23:48:09.654Z,99.90
2023-05-23T23:50:37.135Z,99.90
2023-05-23T23:53:04.659Z,99.90
2023-05-23T23:55:32.262Z,99.90
2023-05-23T23:57:59.760Z,99.90
